createdAt,value
2024-04-01T00:00:39.252Z,99533.88
2024-04-01T00:01:41.073Z,99531.50
2024-04-01T00:02:43.063Z,99532.28
2024-04-01T00:03:45.905Z,99527.06
2024-04-01T00:04:47.706Z,99518.16
2024-04-01T00:05:53.240Z,99517.41
2024-04-01T00:06:54.812Z,99520.19
2024-04-01T00:07:57.684Z,99529.38
2024-04-01T00:08:59.331Z,99524.00
2024-04-01T00:10:01.020Z,99525.75
2024-04-01T00:11:03.020Z,99527.84
2024-04-01T00:12:06.437Z,99524.97
2024-04-01T00:13:30.634Z,99515.31
2024-04-01T00:14:34.396Z,99517.28
2024-04-01T00:15:36.610Z,99520.72
2024-04-01T00:16:39.644Z,99508.28
2024-04-01T00:17:41.041Z,99510.88
2024-04-01T00:18:42.506Z,99505.53
2024-04-01T00:19:43.853Z,99506.38
2024-04-01T00:20:56.629Z,99509.84
2024-04-01T00:21:59.767Z,99507.72
2024-04-01T00:23:03.788Z,99506.00
2024-04-01T00:24:05.843Z,99502.25
2024-04-01T00:25:15.589Z,99494.03
2024-04-01T00:26:16.960Z,99497.50
2024-04-01T00:27:19.797Z,99490.38
2024-04-01T00:28:21.978Z,99494.03
2024-04-01T00:29:25.116Z,99488.84
2024-04-01T00:30:32.392Z,99500.25
2024-04-01T00:31:37.273Z,99503.72
2024-04-01T00:32:56.508Z,99496.59
2024-04-01T00:34:06.034Z,99502.75
2024-04-01T00:35:14.678Z,99501.78
2024-04-01T00:36:18.804Z,99506.09
2024-04-01T00:37:23.864Z,99505.25
2024-04-01T00:38:25.411Z,99501.97
2024-04-01T00:39:26.987Z,99502.84
2024-04-01T00:40:28.674Z,99502.56
2024-04-01T00:41:31.314Z,99501.59
2024-04-01T00:42:33.721Z,99496.84
2024-04-01T00:43:35.508Z,99493.34
2024-04-01T00:44:37.198Z,99488.59
2024-04-01T00:45:44.574Z,99492.72
2024-04-01T00:46:46.392Z,99495.41
2024-04-01T00:47:48.474Z,99493.38
2024-04-01T00:48:52.840Z,99487.91
2024-04-01T00:49:55.872Z,99486.97
2024-04-01T00:51:10.859Z,99491.44
2024-04-01T00:52:13.775Z,99498.75
2024-04-01T00:53:20.260Z,99496.81
2024-04-01T00:54:22.540Z,99494.53
2024-04-01T00:55:24.752Z,99482.09
2024-04-01T00:56:29.206Z,99481.22
2024-04-01T00:57:46.258Z,99475.00
2024-04-01T00:58:48.007Z,99481.00
2024-04-01T00:59:54.082Z,99470.28
2024-04-01T01:00:58.966Z,99470.47
2024-04-01T01:02:03.031Z,99476.72
2024-04-01T01:03:07.233Z,99468.88
2024-04-01T01:04:08.938Z,99472.69
2024-04-01T01:05:15.804Z,99460.19
2024-04-01T01:06:18.675Z,99462.13
2024-04-01T01:07:21.275Z,99466.50
2024-04-01T01:08:24.879Z,99466.13
2024-04-01T01:09:41.293Z,99464.13
2024-04-01T01:10:43.256Z,99456.16
2024-04-01T01:11:45.170Z,99459.72
2024-04-01T01:12:47.009Z,99453.47
2024-04-01T01:13:49.452Z,99454.56
2024-04-01T01:14:51.325Z,99446.69
2024-04-01T01:15:53.074Z,99448.53
2024-04-01T01:16:56.438Z,99438.34
2024-04-01T01:17:59.756Z,99439.91
2024-04-01T01:19:01.376Z,99438.16
2024-04-01T01:20:03.768Z,99436.25
2024-04-01T01:21:05.633Z,99434.31
2024-04-01T01:22:09.571Z,99442.78
2024-04-01T01:23:12.441Z,99434.72
2024-04-01T01:24:14.202Z,99433.72
2024-04-01T01:25:15.582Z,99427.41
2024-04-01T01:26:18.514Z,99437.00
2024-04-01T01:27:20.088Z,99437.56
2024-04-01T01:28:37.024Z,99436.78
2024-04-01T01:29:38.746Z,99447.34
2024-04-01T01:30:41.592Z,99434.88
2024-04-01T01:31:43.470Z,99429.91
2024-04-01T01:32:47.886Z,99438.53
2024-04-01T01:33:49.968Z,99436.41
2024-04-01T01:34:54.678Z,99437.72
2024-04-01T01:35:57.460Z,99439.63
2024-04-01T01:36:59.140Z,99437.25
2024-04-01T01:38:00.924Z,99435.66
2024-04-01T01:39:05.913Z,99444.75
2024-04-01T01:40:08.817Z,99436.78
2024-04-01T01:41:10.688Z,99439.69
2024-04-01T01:42:12.551Z,99443.13
2024-04-01T01:43:15.376Z,99433.34
2024-04-01T01:44:16.979Z,99437.66
2024-04-01T01:45:18.649Z,99437.75
2024-04-01T01:46:20.369Z,99442.38
2024-04-01T01:47:22.786Z,99433.53
2024-04-01T01:48:24.500Z,99437.41
2024-04-01T01:49:25.974Z,99441.22
2024-04-01T01:50:29.473Z,99436.81
2024-04-01T01:51:31.382Z,99446.81
2024-04-01T01:52:34.112Z,99445.06
2024-04-01T01:53:36.566Z,99446.13
2024-04-01T01:54:39.552Z,99451.97
2024-04-01T01:55:40.929Z,99451.59
2024-04-01T01:56:57.388Z,99450.72
2024-04-01T01:57:59.839Z,99447.56
2024-04-01T01:59:02.844Z,99438.66
2024-04-01T02:00:05.909Z,99443.25
2024-04-01T02:01:07.620Z,99447.16
2024-04-01T02:02:11.082Z,99447.34
2024-04-01T02:03:14.844Z,99446.22
2024-04-01T02:04:17.812Z,99445.13
2024-04-01T02:05:19.390Z,99438.91
2024-04-01T02:06:22.737Z,99445.22
2024-04-01T02:07:24.152Z,99440.66
2024-04-01T02:08:25.785Z,99446.78
2024-04-01T02:09:27.394Z,99444.09
2024-04-01T02:10:36.079Z,99451.38
2024-04-01T02:11:37.602Z,99449.00
2024-04-01T02:12:53.153Z,99441.19
2024-04-01T02:13:54.955Z,99445.81
2024-04-01T02:14:57.671Z,99449.44
2024-04-01T02:16:07.166Z,99446.00
2024-04-01T02:17:08.869Z,99445.25
2024-04-01T02:18:11.773Z,99454.25
2024-04-01T02:19:13.728Z,99450.81
2024-04-01T02:20:16.157Z,99454.63
2024-04-01T02:21:18.702Z,99459.41
2024-04-01T02:22:22.871Z,99460.59
2024-04-01T02:23:29.613Z,99452.78
2024-04-01T02:24:31.339Z,99458.34
2024-04-01T02:25:34.396Z,99453.84
2024-04-01T02:26:51.199Z,99449.53
2024-04-01T02:27:53.803Z,99452.41
2024-04-01T02:28:55.660Z,99452.69
2024-04-01T02:29:57.217Z,99459.94
2024-04-01T02:30:59.713Z,99459.28
2024-04-01T02:32:02.749Z,99459.38
2024-04-01T02:33:04.680Z,99457.84
2024-04-01T02:34:06.788Z,99463.47
2024-04-01T02:35:09.250Z,99464.69
2024-04-01T02:36:11.012Z,99464.69
2024-04-01T02:37:12.463Z,99462.81
2024-04-01T02:38:14.312Z,99467.56
2024-04-01T02:39:17.866Z,99461.25
2024-04-01T02:40:19.545Z,99464.03
2024-04-01T02:41:22.557Z,99461.44
2024-04-01T02:42:25.708Z,99459.91
2024-04-01T02:43:27.035Z,99465.25
2024-04-01T02:44:28.429Z,99465.25
2024-04-01T02:45:30.448Z,99466.19
2024-04-01T02:46:33.456Z,99460.06
2024-04-01T02:47:35.097Z,99454.91
2024-04-01T02:48:36.951Z,99457.59
2024-04-01T02:49:39.371Z,99453.06
2024-04-01T02:50:42.552Z,99455.09
2024-04-01T02:51:44.538Z,99449.03
2024-04-01T02:52:48.162Z,99443.75
2024-04-01T02:53:51.129Z,99450.09
2024-04-01T02:54:52.685Z,99445.84
2024-04-01T02:55:55.065Z,99442.25
2024-04-01T02:56:58.377Z,99441.25
2024-04-01T02:58:01.413Z,99446.63
2024-04-01T02:59:04.297Z,99443.84
2024-04-01T03:00:08.153Z,99443.19
2024-04-01T03:01:10.552Z,99449.31
2024-04-01T03:02:13.774Z,99437.81
2024-04-01T03:03:15.434Z,99443.00
2024-04-01T03:04:20.160Z,99440.13
2024-04-01T03:05:22.517Z,99436.50
2024-04-01T03:06:25.336Z,99438.41
2024-04-01T03:07:26.923Z,99441.06
2024-04-01T03:08:28.711Z,99435.53
2024-04-01T03:09:30.459Z,99430.97
2024-04-01T03:10:33.437Z,99436.31
2024-04-01T03:11:34.786Z,99439.94
2024-04-01T03:12:37.916Z,99433.66
2024-04-01T03:13:39.224Z,99437.09
2024-04-01T03:14:41.834Z,99433.56
2024-04-01T03:15:45.274Z,99434.41
2024-04-01T03:16:47.101Z,99434.50
2024-04-01T03:17:48.657Z,99433.66
2024-04-01T03:18:51.424Z,99434.22
2024-04-01T03:19:53.013Z,99429.84
2024-04-01T03:20:54.575Z,99417.38
2024-04-01T03:21:56.403Z,99435.19
2024-04-01T03:22:59.002Z,99425.31
2024-04-01T03:24:00.727Z,99427.91
2024-04-01T03:25:02.564Z,99427.91
2024-04-01T03:26:06.450Z,99427.06
2024-04-01T03:27:08.124Z,99418.03
2024-04-01T03:28:11.840Z,99419.88
2024-04-01T03:29:13.723Z,99417.00
2024-04-01T03:30:16.448Z,99420.63
2024-04-01T03:31:18.195Z,99417.66
2024-04-01T03:32:20.452Z,99417.63
2024-04-01T03:33:22.580Z,99416.63
2024-04-01T03:34:25.336Z,99418.38
2024-04-01T03:35:27.511Z,99412.06
2024-04-01T03:36:30.819Z,99422.00
2024-04-01T03:37:33.245Z,99416.63
2024-04-01T03:38:35.126Z,99420.88
2024-04-01T03:39:37.381Z,99415.50
2024-04-01T03:40:40.327Z,99416.25
2024-04-01T03:41:42.052Z,99409.94
2024-04-01T03:42:44.775Z,99412.44
2024-04-01T03:43:48.064Z,99416.06
2024-04-01T03:44:53.475Z,99412.25
2024-04-01T03:45:58.517Z,99411.50
2024-04-01T03:47:00.502Z,99410.56
2024-04-01T03:48:02.723Z,99402.41
2024-04-01T03:49:05.355Z,99401.53
2024-04-01T03:50:08.178Z,99406.78
2024-04-01T03:51:09.818Z,99406.69
2024-04-01T03:52:11.556Z,99403.06
2024-04-01T03:53:26.322Z,99399.53
2024-04-01T03:54:28.762Z,99404.81
2024-04-01T03:55:31.212Z,99405.00
2024-04-01T03:56:34.136Z,99410.16
2024-04-01T03:57:35.714Z,99406.78
2024-04-01T03:58:37.502Z,99404.13
2024-04-01T03:59:42.812Z,99404.03
2024-04-01T04:00:44.746Z,99407.88
2024-04-01T04:01:46.636Z,99414.19
2024-04-01T04:02:48.134Z,99408.81
2024-04-01T04:03:52.693Z,99409.84
2024-04-01T04:04:54.041Z,99409.00
2024-04-01T04:05:55.469Z,99423.25
2024-04-01T04:06:57.327Z,99417.03
2024-04-01T04:07:59.799Z,99414.38
2024-04-01T04:09:02.177Z,99414.19
2024-04-01T04:10:04.596Z,99416.75
2024-04-01T04:11:07.540Z,99406.88
2024-04-01T04:12:11.236Z,99395.31
2024-04-01T04:13:15.124Z,99400.69
2024-04-01T04:14:18.449Z,99391.00
2024-04-01T04:15:22.621Z,99385.63
2024-04-01T04:16:25.463Z,99390.16
2024-04-01T04:17:27.318Z,99392.91
2024-04-01T04:18:29.563Z,99399.81
2024-04-01T04:19:31.227Z,99392.72
2024-04-01T04:20:36.059Z,99401.53
2024-04-01T04:21:38.415Z,99401.44
2024-04-01T04:22:40.160Z,99397.91
2024-04-01T04:23:41.666Z,99394.09
2024-04-01T04:24:44.651Z,99397.63
2024-04-01T04:25:46.248Z,99396.84
2024-04-01T04:26:49.055Z,99403.72
2024-04-01T04:27:53.575Z,99398.69
2024-04-01T04:28:57.190Z,99404.50
2024-04-01T04:29:59.705Z,99391.28
2024-04-01T04:31:03.656Z,99396.56
2024-04-01T04:32:11.343Z,99386.44
2024-04-01T04:33:13.092Z,99394.38
2024-04-01T04:34:15.194Z,99388.13
2024-04-01T04:35:17.772Z,99381.50
2024-04-01T04:36:21.129Z,99380.16
2024-04-01T04:37:22.919Z,99381.59
2024-04-01T04:38:26.097Z,99380.56
2024-04-01T04:39:27.817Z,99376.44
2024-04-01T04:40:31.226Z,99384.69
2024-04-01T04:41:32.970Z,99388.59
2024-04-01T04:42:34.580Z,99382.34
2024-04-01T04:43:36.212Z,99377.78
2024-04-01T04:44:39.149Z,99382.34
2024-04-01T04:45:48.237Z,99377.94
2024-04-01T04:46:51.439Z,99383.13
2024-04-01T04:47:55.063Z,99387.16
2024-04-01T04:48:56.841Z,99387.16
2024-04-01T04:50:01.369Z,99393.50
2024-04-01T04:51:05.152Z,99393.31
2024-04-01T04:52:08.165Z,99389.84
2024-04-01T04:53:10.422Z,99397.16
2024-04-01T04:54:12.364Z,99394.25
2024-04-01T04:55:15.435Z,99384.47
2024-04-01T04:56:16.967Z,99388.03
2024-04-01T04:57:18.861Z,99390.63
2024-04-01T04:58:20.897Z,99386.97
2024-04-01T04:59:23.640Z,99386.00
2024-04-01T05:00:25.459Z,99393.22
2024-04-01T05:01:27.316Z,99383.91
2024-04-01T05:02:31.689Z,99381.88
2024-04-01T05:03:34.438Z,99375.44
2024-04-01T05:04:36.437Z,99379.63
2024-04-01T05:05:38.209Z,99383.84
2024-04-01T05:06:42.648Z,99376.84
2024-04-01T05:07:45.567Z,99383.84
2024-04-01T05:08:47.028Z,99387.84
2024-04-01T05:09:49.776Z,99382.19
2024-04-01T05:10:51.848Z,99380.16
2024-04-01T05:11:54.242Z,99378.78
2024-04-01T05:12:55.976Z,99379.56
2024-04-01T05:14:01.714Z,99382.78
2024-04-01T05:15:05.836Z,99383.13
2024-04-01T05:16:07.973Z,99387.72
2024-04-01T05:17:09.381Z,99380.25
2024-04-01T05:18:15.574Z,99387.25
2024-04-01T05:19:17.407Z,99379.81
2024-04-01T05:20:19.173Z,99377.59
2024-04-01T05:21:20.838Z,99382.44
2024-04-01T05:22:22.764Z,99376.41
2024-04-01T05:23:26.061Z,99383.09
2024-04-01T05:24:27.800Z,99388.16
2024-04-01T05:25:29.713Z,99379.22
2024-04-01T05:26:32.326Z,99370.84
2024-04-01T05:27:35.331Z,99374.97
2024-04-01T05:28:37.084Z,99374.56
2024-04-01T05:29:39.070Z,99376.16
2024-04-01T05:30:41.594Z,99367.00
2024-04-01T05:31:43.435Z,99371.53
2024-04-01T05:32:45.200Z,99365.31
2024-04-01T05:33:49.459Z,99367.78
2024-04-01T05:34:51.464Z,99360.34
2024-04-01T05:35:53.198Z,99358.94
2024-04-01T05:36:57.488Z,99359.28
2024-04-01T05:38:00.490Z,99358.66
2024-04-01T05:39:03.799Z,99372.63
2024-04-01T05:40:06.269Z,99371.44
2024-04-01T05:41:07.837Z,99371.34
2024-04-01T05:42:10.530Z,99366.47
2024-04-01T05:43:12.326Z,99372.41
2024-04-01T05:44:15.030Z,99378.84
2024-04-01T05:45:17.421Z,99364.44
2024-04-01T05:46:20.448Z,99359.91
2024-04-01T05:47:22.180Z,99361.84
2024-04-01T05:48:23.855Z,99360.91
2024-04-01T05:49:26.803Z,99354.97
2024-04-01T05:50:29.532Z,99368.53
2024-04-01T05:51:31.084Z,99368.84
2024-04-01T05:52:32.790Z,99371.09
2024-04-01T05:53:34.478Z,99370.56
2024-04-01T05:54:37.497Z,99365.81
2024-04-01T05:55:40.246Z,99373.66
2024-04-01T05:56:41.717Z,99368.72
2024-04-01T05:57:44.397Z,99368.50
2024-04-01T05:58:46.235Z,99360.09
2024-04-01T05:59:48.402Z,99365.16
2024-04-01T06:00:51.186Z,99360.00
2024-04-01T06:01:53.210Z,99369.06
2024-04-01T06:02:55.238Z,99366.16
2024-04-01T06:03:58.063Z,99376.97
2024-04-01T06:05:01.141Z,99373.00
2024-04-01T06:06:03.129Z,99377.53
2024-04-01T06:07:05.621Z,99381.19
2024-04-01T06:08:07.570Z,99387.41
2024-04-01T06:09:09.763Z,99383.03
2024-04-01T06:10:13.452Z,99382.25
2024-04-01T06:11:15.170Z,99396.47
2024-04-01T06:12:16.802Z,99389.66
2024-04-01T06:13:19.758Z,99394.97
2024-04-01T06:14:21.155Z,99388.91
2024-04-01T06:15:22.907Z,99402.50
2024-04-01T06:16:24.834Z,99405.53
2024-04-01T06:17:27.657Z,99398.63
2024-04-01T06:18:29.123Z,99411.75
2024-04-01T06:19:30.611Z,99401.88
2024-04-01T06:20:33.990Z,99404.88
2024-04-01T06:21:36.679Z,99406.50
2024-04-01T06:22:38.371Z,99403.81
2024-04-01T06:23:40.115Z,99402.31
2024-04-01T06:24:42.953Z,99398.44
2024-04-01T06:25:44.844Z,99400.59
2024-04-01T06:26:46.695Z,99407.88
2024-04-01T06:27:48.545Z,99401.97
2024-04-01T06:28:51.528Z,99403.59
2024-04-01T06:29:53.276Z,99401.47
2024-04-01T06:30:54.944Z,99405.97
2024-04-01T06:31:56.688Z,99401.25
2024-04-01T06:32:59.543Z,99402.84
2024-04-01T06:34:01.355Z,99404.13
2024-04-01T06:35:03.514Z,99402.50
2024-04-01T06:36:08.573Z,99413.88
2024-04-01T06:37:10.004Z,99400.59
2024-04-01T06:38:12.578Z,99401.22
2024-04-01T06:39:15.569Z,99395.19
2024-04-01T06:40:18.467Z,99391.50
2024-04-01T06:41:20.259Z,99392.03
2024-04-01T06:42:25.212Z,99386.16
2024-04-01T06:43:27.932Z,99380.84
2024-04-01T06:44:30.431Z,99378.25
2024-04-01T06:45:31.956Z,99374.53
2024-04-01T06:46:34.743Z,99371.09
2024-04-01T06:47:36.662Z,99369.97
2024-04-01T06:48:38.499Z,99363.81
2024-04-01T06:49:41.493Z,99357.50
2024-04-01T06:50:43.105Z,99358.84
2024-04-01T06:51:46.084Z,99358.91
2024-04-01T06:52:47.735Z,99356.22
2024-04-01T06:53:50.749Z,99358.50
2024-04-01T06:54:52.797Z,99357.53
2024-04-01T06:55:54.734Z,99365.00
2024-04-01T06:56:57.800Z,99363.41
2024-04-01T06:58:00.638Z,99358.38
2024-04-01T06:59:02.724Z,99363.75
2024-04-01T07:00:05.557Z,99364.88
2024-04-01T07:01:09.618Z,99368.44
2024-04-01T07:02:11.881Z,99356.03
2024-04-01T07:03:14.057Z,99364.47
2024-04-01T07:04:17.122Z,99367.44
2024-04-01T07:05:18.763Z,99370.09
2024-04-01T07:06:20.610Z,99374.16
2024-04-01T07:07:27.929Z,99374.28
2024-04-01T07:08:30.188Z,99380.41
2024-04-01T07:09:32.516Z,99386.81
2024-04-01T07:10:34.535Z,99389.25
2024-04-01T07:11:37.822Z,99392.28
2024-04-01T07:12:39.560Z,99379.66
2024-04-01T07:13:41.667Z,99392.69
2024-04-01T07:14:43.898Z,99391.91
2024-04-01T07:15:46.334Z,99398.19
2024-04-01T07:16:49.421Z,99398.34
2024-04-01T07:17:51.794Z,99397.88
2024-04-01T07:18:53.269Z,99392.97
2024-04-01T07:19:55.139Z,99396.53
2024-04-01T07:20:58.480Z,99397.91
2024-04-01T07:21:59.995Z,99405.88
2024-04-01T07:23:03.263Z,99391.28
2024-04-01T07:24:06.675Z,99396.56
2024-04-01T07:25:08.219Z,99387.72
2024-04-01T07:26:10.140Z,99396.56
2024-04-01T07:27:12.485Z,99393.25
2024-04-01T07:28:15.325Z,99392.41
2024-04-01T07:29:17.102Z,99400.38
2024-04-01T07:30:18.914Z,99405.78
2024-04-01T07:31:21.024Z,99408.00
2024-04-01T07:32:24.068Z,99402.72
2024-04-01T07:33:26.031Z,99405.03
2024-04-01T07:34:27.657Z,99402.84
2024-04-01T07:35:52.124Z,99405.28
2024-04-01T07:36:54.102Z,99408.72
2024-04-01T07:37:55.852Z,99411.03
2024-04-01T07:39:00.036Z,99411.41
2024-04-01T07:40:01.591Z,99412.38
2024-04-01T07:41:03.474Z,99411.63
2024-04-01T07:42:07.052Z,99405.19
2024-04-01T07:43:08.855Z,99401.66
2024-04-01T07:44:10.589Z,99412.22
2024-04-01T07:45:12.468Z,99399.00
2024-04-01T07:46:15.071Z,99412.00
2024-04-01T07:47:17.242Z,99397.63
2024-04-01T07:48:19.031Z,99398.44
2024-04-01T07:49:22.368Z,99411.72
2024-04-01T07:50:23.920Z,99403.31
2024-04-01T07:51:25.445Z,99402.66
2024-04-01T07:52:43.326Z,99403.31
2024-04-01T07:53:44.778Z,99399.28
2024-04-01T07:54:48.093Z,99404.50
2024-04-01T07:55:50.728Z,99390.88
2024-04-01T07:56:52.307Z,99399.84
2024-04-01T07:57:54.090Z,99403.34
2024-04-01T07:58:57.221Z,99402.00
2024-04-01T08:00:03.407Z,99405.44
2024-04-01T08:01:05.988Z,99407.38
2024-04-01T08:02:07.739Z,99412.28
2024-04-01T08:03:09.514Z,99404.94
2024-04-01T08:04:14.135Z,99402.66
2024-04-01T08:05:16.104Z,99405.22
2024-04-01T08:06:17.874Z,99407.97
2024-04-01T08:07:20.066Z,99411.81
2024-04-01T08:08:22.486Z,99410.91
2024-04-01T08:09:24.287Z,99412.53
2024-04-01T08:10:46.247Z,99410.66
2024-04-01T08:11:49.384Z,99410.06
2024-04-01T08:12:51.040Z,99404.63
2024-04-01T08:13:53.576Z,99403.22
2024-04-01T08:14:55.124Z,99403.78
2024-04-01T08:16:02.171Z,99403.34
2024-04-01T08:17:04.403Z,99407.34
2024-04-01T08:18:06.363Z,99398.91
2024-04-01T08:19:07.830Z,99403.19
2024-04-01T08:20:10.666Z,99406.94
2024-04-01T08:21:12.113Z,99407.66
2024-04-01T08:22:13.879Z,99396.63
2024-04-01T08:23:15.399Z,99399.81
2024-04-01T08:24:18.361Z,99395.34
2024-04-01T08:25:20.020Z,99392.34
2024-04-01T08:26:23.242Z,99398.00
2024-04-01T08:27:25.057Z,99400.34
2024-04-01T08:28:32.852Z,99396.63
2024-04-01T08:29:34.720Z,99394.38
2024-04-01T08:30:36.670Z,99394.91
2024-04-01T08:31:39.398Z,99394.06
2024-04-01T08:32:40.847Z,99384.38
2024-04-01T08:33:42.695Z,99391.50
2024-04-01T08:34:44.191Z,99390.06
2024-04-01T08:35:46.865Z,99382.34
2024-04-01T08:36:48.575Z,99380.09
2024-04-01T08:37:50.338Z,99383.66
2024-04-01T08:38:52.086Z,99375.56
2024-04-01T08:39:55.287Z,99396.13
2024-04-01T08:40:58.475Z,99374.91
2024-04-01T08:42:04.344Z,99378.97
2024-04-01T08:43:13.866Z,99368.94
2024-04-01T08:44:31.219Z,99375.88
2024-04-01T08:45:34.959Z,99372.13
2024-04-01T08:46:40.446Z,99382.56
2024-04-01T08:47:45.660Z,99379.34
2024-04-01T08:48:51.287Z,99384.59
2024-04-01T08:50:04.931Z,99372.09
2024-04-01T08:51:07.622Z,99377.59
2024-04-01T08:52:22.248Z,99384.44
2024-04-01T08:53:38.438Z,99383.56
2024-04-01T08:54:41.047Z,99388.47
2024-04-01T08:55:43.995Z,99374.13
2024-04-01T08:56:45.571Z,99385.84
2024-04-01T08:57:49.747Z,99381.06
2024-04-01T08:58:53.509Z,99374.81
2024-04-01T08:59:57.035Z,99380.06
2024-04-01T09:00:59.046Z,99378.34
2024-04-01T09:02:02.175Z,99382.81
2024-04-01T09:03:05.179Z,99373.56
2024-04-01T09:04:06.860Z,99365.25
2024-04-01T09:05:08.628Z,99377.16
2024-04-01T09:06:11.602Z,99366.22
2024-04-01T09:07:14.640Z,99375.53
2024-04-01T09:08:16.747Z,99368.34
2024-04-01T09:09:18.812Z,99371.22
2024-04-01T09:10:22.498Z,99361.38
2024-04-01T09:11:25.742Z,99364.94
2024-04-01T09:12:27.722Z,99379.75
2024-04-01T09:13:33.278Z,99363.63
2024-04-01T09:14:36.037Z,99370.97
2024-04-01T09:15:37.640Z,99367.06
2024-04-01T09:16:40.820Z,99366.31
2024-04-01T09:17:43.750Z,99370.69
2024-04-01T09:18:45.587Z,99364.19
2024-04-01T09:19:47.028Z,99374.97
2024-04-01T09:20:49.314Z,99375.38
2024-04-01T09:21:52.249Z,99370.06
2024-04-01T09:22:53.974Z,99369.59
2024-04-01T09:23:57.114Z,99373.97
2024-04-01T09:25:00.215Z,99372.34
2024-04-01T09:26:03.503Z,99372.03
2024-04-01T09:27:05.381Z,99368.47
2024-04-01T09:28:07.361Z,99363.00
2024-04-01T09:29:11.639Z,99347.47
2024-04-01T09:30:13.416Z,99361.41
2024-04-01T09:31:15.548Z,99368.22
2024-04-01T09:32:17.817Z,99358.94
2024-04-01T09:33:21.149Z,99354.50
2024-04-01T09:34:22.974Z,99358.72
2024-04-01T09:35:25.947Z,99350.13
2024-04-01T09:36:29.083Z,99356.91
2024-04-01T09:37:31.676Z,99351.13
2024-04-01T09:38:34.346Z,99356.81
2024-04-01T09:39:36.765Z,99355.00
2024-04-01T09:40:38.855Z,99356.81
2024-04-01T09:41:42.673Z,99351.41
2024-04-01T09:42:45.559Z,99352.72
2024-04-01T09:43:51.882Z,99343.78
2024-04-01T09:44:56.538Z,99346.41
2024-04-01T09:46:02.799Z,99350.94
2024-04-01T09:47:06.608Z,99355.53
2024-04-01T09:48:09.511Z,99342.28
2024-04-01T09:49:28.865Z,99340.34
2024-04-01T09:50:33.332Z,99344.97
2024-04-01T09:51:35.023Z,99340.50
2024-04-01T09:52:37.210Z,99343.03
2024-04-01T09:53:39.810Z,99330.09
2024-04-01T09:54:41.393Z,99336.94
2024-04-01T09:56:12.092Z,99341.84
2024-04-01T09:57:55.927Z,99335.34
2024-04-01T09:59:25.568Z,99329.03
2024-04-01T10:00:39.671Z,99330.94
2024-04-01T10:02:02.257Z,99324.69
2024-04-01T10:03:39.461Z,99325.03
2024-04-01T10:05:21.322Z,99325.69
2024-04-01T10:07:10.641Z,99327.69
2024-04-01T10:08:40.148Z,99317.38
2024-04-01T10:10:17.264Z,99322.34
2024-04-01T10:11:38.427Z,99316.44
2024-04-01T10:13:22.708Z,99318.78
2024-04-01T10:14:54.121Z,99319.56
2024-04-01T10:16:17.073Z,99314.72
2024-04-01T10:17:59.523Z,99300.50
2024-04-01T10:19:42.255Z,99306.25
2024-04-01T10:21:20.371Z,99312.22
2024-04-01T10:22:49.219Z,99297.28
2024-04-01T10:24:30.443Z,99302.31
2024-04-01T10:26:13.421Z,99298.06
2024-04-01T10:27:44.551Z,99290.16
2024-04-01T10:29:50.216Z,99284.03
2024-04-01T10:31:32.958Z,99292.19
2024-04-01T10:33:14.307Z,99294.56
2024-04-01T10:35:04.294Z,99280.50
2024-04-01T10:36:26.851Z,99279.00
2024-04-01T10:38:08.848Z,99277.38
2024-04-01T10:39:50.080Z,99283.31
2024-04-01T10:41:20.219Z,99277.47
2024-04-01T10:43:06.965Z,99272.91
2024-04-01T10:44:42.932Z,99272.91
2024-04-01T10:46:17.247Z,99262.00
2024-04-01T10:47:54.397Z,99261.19
2024-04-01T10:49:23.456Z,99261.53
2024-04-01T10:50:53.754Z,99259.97
2024-04-01T10:52:31.144Z,99258.28
2024-04-01T10:53:57.024Z,99249.41
2024-04-01T10:55:20.043Z,99244.97
2024-04-01T10:57:20.867Z,99239.66
2024-04-01T10:58:51.412Z,99250.25
2024-04-01T11:00:38.003Z,99239.84
2024-04-01T11:02:00.310Z,99236.09
2024-04-01T11:04:03.514Z,99240.69
2024-04-01T11:05:28.005Z,99241.75
2024-04-01T11:07:03.333Z,99236.63
2024-04-01T11:08:20.165Z,99235.41
2024-04-01T11:09:38.243Z,99233.53
2024-04-01T11:10:48.636Z,99221.78
2024-04-01T11:12:02.622Z,99236.94
2024-04-01T11:13:07.074Z,99214.94
2024-04-01T11:14:10.635Z,99212.53
2024-04-01T11:15:15.150Z,99211.84
2024-04-01T11:16:20.059Z,99201.97
2024-04-01T11:17:25.005Z,99201.25
2024-04-01T11:18:45.342Z,99203.00
2024-04-01T11:20:21.341Z,99194.44
2024-04-01T11:21:31.872Z,99195.44
2024-04-01T11:22:50.778Z,99198.53
2024-04-01T11:24:01.315Z,99195.81
2024-04-01T11:25:14.096Z,99192.06
2024-04-01T11:26:40.523Z,99185.91
2024-04-01T11:28:18.399Z,99189.75
2024-04-01T11:29:47.687Z,99174.91
2024-04-01T11:31:04.332Z,99168.78
2024-04-01T11:32:12.688Z,99168.06
2024-04-01T11:33:18.839Z,99176.28
2024-04-01T11:34:31.458Z,99163.34
2024-04-01T11:35:46.073Z,99158.44
2024-04-01T11:37:05.103Z,99155.28
2024-04-01T11:38:23.980Z,99154.22
2024-04-01T11:39:29.770Z,99148.03
2024-04-01T11:40:35.568Z,99145.00
2024-04-01T11:41:45.412Z,99141.84
2024-04-01T11:42:55.255Z,99145.50
2024-04-01T11:43:58.749Z,99139.84
2024-04-01T11:45:06.957Z,99147.31
2024-04-01T11:46:11.928Z,99137.47
2024-04-01T11:47:17.367Z,99141.34
2024-04-01T11:48:23.079Z,99140.75
2024-04-01T11:49:39.579Z,99133.56
2024-04-01T11:50:50.437Z,99135.22
2024-04-01T11:51:53.458Z,99129.81
2024-04-01T11:52:58.510Z,99131.78
2024-04-01T11:54:00.401Z,99125.69
2024-04-01T11:55:12.802Z,99122.88
2024-04-01T11:56:14.451Z,99124.81
2024-04-01T11:57:23.386Z,99126.06
2024-04-01T11:58:27.739Z,99117.66
2024-04-01T11:59:31.979Z,99118.75
2024-04-01T12:00:52.033Z,99117.25
2024-04-01T12:01:55.138Z,99123.19
2024-04-01T12:02:58.549Z,99113.94
2024-04-01T12:04:01.787Z,99116.81
2024-04-01T12:05:05.813Z,99116.31
2024-04-01T12:06:14.332Z,99102.44
2024-04-01T12:07:16.011Z,99102.19
2024-04-01T12:08:20.715Z,99100.88
2024-04-01T12:09:23.751Z,99099.31
2024-04-01T12:10:28.065Z,99090.50
2024-04-01T12:11:32.243Z,99094.19
2024-04-01T12:12:34.676Z,99088.84
2024-04-01T12:13:41.491Z,99083.97
2024-04-01T12:14:43.618Z,99080.91
2024-04-01T12:15:45.612Z,99083.13
2024-04-01T12:16:47.543Z,99078.00
2024-04-01T12:17:50.823Z,99087.63
2024-04-01T12:18:52.865Z,99074.69
2024-04-01T12:19:57.973Z,99075.44
2024-04-01T12:21:02.659Z,99074.22
2024-04-01T12:22:05.072Z,99076.88
2024-04-01T12:23:08.568Z,99076.69
2024-04-01T12:24:11.990Z,99071.19
2024-04-01T12:25:15.842Z,99065.88
2024-04-01T12:26:18.748Z,99064.56
2024-04-01T12:27:22.046Z,99072.66
2024-04-01T12:28:27.944Z,99063.19
2024-04-01T12:29:31.899Z,99063.66
2024-04-01T12:30:38.080Z,99067.50
2024-04-01T12:31:46.165Z,99062.97
2024-04-01T12:32:50.210Z,99058.00
2024-04-01T12:33:53.197Z,99055.47
2024-04-01T12:34:55.862Z,99053.75
2024-04-01T12:35:58.939Z,99057.50
2024-04-01T12:37:04.477Z,99047.31
2024-04-01T12:38:13.394Z,99044.16
2024-04-01T12:39:16.372Z,99044.56
2024-04-01T12:40:19.623Z,99039.28
2024-04-01T12:41:22.541Z,99036.03
2024-04-01T12:42:40.102Z,99031.72
2024-04-01T12:43:42.028Z,99025.88
2024-04-01T12:44:44.892Z,99037.19
2024-04-01T12:45:47.710Z,99037.19
2024-04-01T12:46:50.103Z,99035.88
2024-04-01T12:47:53.194Z,99032.25
2024-04-01T12:48:55.900Z,99026.97
2024-04-01T12:50:02.794Z,99025.94
2024-04-01T12:51:06.425Z,99027.69
2024-04-01T12:52:15.244Z,99026.47
2024-04-01T12:53:46.385Z,99016.28
2024-04-01T12:55:08.859Z,99018.63